NFTF/TBU METAR and TAF weather

Enter ICAO airport designator
Station Type Date Time Source
NFTF METAR 2021/01/27 12:00 UTC NOAA

NFTF 271200Z 04006KT 9999 -RA SCT010 BKN016 OVC100 25/24 Q1007


Station Type Date Time Source
NFTF Decoded METAR 2021/01/27 12:00 UTC NOAA

Fua'Amotu, Tonga (NFTF) 21-14S 175-09W 41M
Jan 27, 2021 - 07:00 AM EST / 2021.01.27 1200 UTC
Wind: from the NE (040 degrees) at 7 MPH (6 KT):0
Visibility: greater than 7 mile(s):0
Sky conditions: overcast
Weather: light rain
Temperature: 77 F (25 C)
Dew Point: 75 F (24 C)
Relative Humidity: 94%
Pressure (altimeter): 29.74 in. Hg (1007 hPa)
ob: NFTF 271200Z 04006KT 9999 -RA SCT010 BKN016 OVC100 25/24 Q1007
cycle: 12

Station Type Date Time Source
NFTF TAF 2021/01/27 12:00 UTC NOAA

TAF NFTF 271110Z 2712/2812 05005KT 9999 -RA FEW010 SCT016 BKN100 PROB40
TEMPO 2712/2812 02015G25KT 3000 +TSRA BKN010 SCT015CB

Example: see airport list